Time;durP1;ratioP1;P1;durP2;ratioP2;P2;SDS_P1;SDS_P2;PMS_P1;PMS_P2;Temp;Humidity;BMP_temperature;BMP_pressure;BME280_temperature;BME280_humidity;BME280_pressure;Samples;Min_cycle;Max_cycle;Signal;HPM_P1;HPM_P2
2022/04/20 00:00:21;;;;;;;1.10;0.83;;;;;19.20;100476.00;;;;2070821;28;20699;-45
2022/04/20 00:01:22;;;;;;;1.70;0.87;;;;;19.20;100479.00;;;;2071016;28;20218;-45
2022/04/20 00:02:23;;;;;;;2.05;0.80;;;;;19.20;100479.00;;;;2070872;28;20222;-46
2022/04/20 00:03:23;;;;;;;1.02;0.90;;;;;19.20;100489.00;;;;2071011;28;20214;-45
2022/04/20 00:04:24;;;;;;;1.00;0.80;;;;;19.20;100473.00;;;;2070571;28;20773;-47
2022/04/20 00:05:24;;;;;;;1.60;1.10;;;;;19.20;100476.00;;;;2070214;28;20625;-46
2022/04/20 00:06:25;;;;;;;1.10;1.00;;;;;19.20;100483.00;;;;2070911;28;20621;-46
2022/04/20 00:07:26;;;;;;;1.00;0.83;;;;;19.20;100467.00;;;;2070573;28;20769;-45
2022/04/20 00:08:26;;;;;;;1.30;1.00;;;;;19.20;100476.00;;;;2070918;28;20214;-46
2022/04/20 00:09:26;;;;;;;1.47;0.90;;;;;19.20;100477.00;;;;2070785;28;20461;-46
2022/04/20 00:10:28;;;;;;;1.40;1.27;;;;;19.20;100478.00;;;;2072143;28;20218;-47
2022/04/20 00:11:28;;;;;;;1.27;1.00;;;;;19.20;100474.00;;;;2078920;28;20224;-47
2022/04/20 00:12:29;;;;;;;1.20;1.00;;;;;19.20;100472.00;;;;2079003;28;20241;-48
2022/04/20 00:13:29;;;;;;;1.47;1.10;;;;;19.20;100474.00;;;;2078851;28;20217;-48
2022/04/20 00:14:29;;;;;;;0.80;0.80;;;;;19.20;100472.00;;;;2074211;28;20224;-45
2022/04/20 00:15:30;;;;;;;0.80;0.77;;;;;19.20;100475.00;;;;2070267;28;20837;-45
2022/04/20 00:16:30;;;;;;;1.40;1.03;;;;;19.20;100466.00;;;;2070729;28;20671;-45
2022/04/20 00:17:30;;;;;;;1.77;1.10;;;;;19.20;100400.00;;;;2070836;28;20797;-46
2022/04/20 00:18:31;;;;;;;1.10;1.00;;;;;19.20;100469.00;;;;2070730;28;20690;-46
2022/04/20 00:19:31;;;;;;;1.00;0.90;;;;;19.20;100471.00;;;;2070543;28;20589;-47
2022/04/20 00:20:31;;;;;;;0.90;0.80;;;;;19.20;100473.00;;;;2070889;28;20218;-46
2022/04/20 00:21:32;;;;;;;1.90;1.00;;;;;19.20;100468.00;;;;2068212;28;20272;-45
2022/04/20 00:22:32;;;;;;;1.03;0.93;;;;;19.20;100467.00;;;;2072983;28;20915;-45
2022/04/20 00:23:32;;;;;;;1.40;0.93;;;;;19.20;100460.00;;;;2077395;28;20221;-47
2022/04/20 00:24:33;;;;;;;0.87;0.70;;;;;19.20;100464.00;;;;2078119;28;20220;-47
2022/04/20 00:25:33;;;;;;;1.20;1.10;;;;;19.20;100466.00;;;;2077700;28;20293;-45
2022/04/20 00:26:33;;;;;;;0.90;0.73;;;;;19.20;100468.00;;;;2078586;28;20737;-45
2022/04/20 00:27:35;;;;;;;1.00;0.73;;;;;19.20;100470.00;;;;2078052;28;20216;-45
2022/04/20 00:28:36;;;;;;;1.45;1.00;;;;;19.20;100476.00;;;;2077752;28;20213;-46
2022/04/20 00:29:36;;;;;;;0.87;0.70;;;;;19.20;100474.00;;;;2078473;28;20297;-45
2022/04/20 00:30:36;;;;;;;1.10;0.90;;;;;19.20;100471.00;;;;2078461;28;20228;-45
2022/04/20 00:31:37;;;;;;;1.20;1.00;;;;;19.20;100477.00;;;;2078440;28;20210;-45
2022/04/20 00:32:37;;;;;;;1.33;0.73;;;;;19.20;100477.00;;;;2078112;28;20217;-45
2022/04/20 00:33:37;;;;;;;1.17;1.07;;;;;19.20;100479.00;;;;2078746;28;20244;-46
2022/04/20 00:34:38;;;;;;;1.40;1.03;;;;;19.20;100482.00;;;;2072832;28;20271;-46
2022/04/20 00:35:39;;;;;;;1.00;0.90;;;;;19.20;100482.00;;;;2084905;28;20289;-48
2022/04/20 00:36:39;;;;;;;0.95;0.80;;;;;19.20;100478.00;;;;2077775;28;20254;-46
2022/04/20 00:37:41;;;;;;;1.10;1.00;;;;;19.20;100480.00;;;;2075225;28;20202;-46
2022/04/20 00:38:41;;;;;;;1.63;0.93;;;;;19.20;100482.00;;;;2070126;28;20237;-45
2022/04/20 00:39:42;;;;;;;1.00;0.90;;;;;19.20;100483.00;;;;2070214;28;20214;-46
2022/04/20 00:40:45;;;;;;;1.00;0.70;;;;;19.20;100486.00;;;;2069926;28;20276;-45
2022/04/20 00:41:45;;;;;;;1.02;0.90;;;;;19.20;100487.00;;;;2069862;28;20974;-45
2022/04/20 00:42:46;;;;;;;1.13;0.90;;;;;19.20;100486.00;;;;2069910;28;20206;-46
2022/04/20 00:43:46;;;;;;;1.00;0.90;;;;;19.20;100481.00;;;;2061925;28;20687;-46
2022/04/20 00:44:46;;;;;;;1.10;0.97;;;;;19.20;100481.00;;;;2061923;28;20580;-45
2022/04/20 00:45:47;;;;;;;1.10;1.00;;;;;19.20;100484.00;;;;2069750;28;20833;-45
2022/04/20 00:46:47;;;;;;;1.10;0.90;;;;;19.20;100483.00;;;;2070048;28;20896;-45
2022/04/20 00:47:48;;;;;;;1.20;1.07;;;;;19.20;100485.00;;;;2069959;28;20204;-45
2022/04/20 00:48:48;;;;;;;1.33;1.03;;;;;19.20;100484.00;;;;2070249;28;20206;-45
2022/04/20 00:49:48;;;;;;;1.10;1.00;;;;;19.20;100473.00;;;;2061539;28;20317;-47
2022/04/20 00:50:49;;;;;;;1.20;1.10;;;;;19.20;100490.00;;;;2057602;28;20751;-47
2022/04/20 00:51:58;;;;;;;1.10;1.00;;;;;19.20;100481.00;;;;2069700;28;20217;-46
2022/04/20 00:52:58;;;;;;;1.00;0.90;;;;;19.20;100479.00;;;;2070920;28;20280;-47
2022/04/20 00:54:00;;;;;;;1.00;0.90;;;;;19.20;100485.00;;;;2078397;28;20221;-46
2022/04/20 00:55:00;;;;;;;1.25;1.15;;;;;19.20;100484.00;;;;2078947;28;20217;-45
2022/04/20 00:56:00;;;;;;;1.10;1.00;;;;;19.20;100484.00;;;;2077990;28;20216;-47
2022/04/20 00:57:01;;;;;;;1.20;1.00;;;;;19.20;100484.00;;;;2078322;28;20220;-47
2022/04/20 00:58:01;;;;;;;1.20;0.93;;;;;19.20;100482.00;;;;2078942;28;20217;-45
2022/04/20 00:59:01;;;;;;;1.00;0.90;;;;;19.20;100485.00;;;;2078921;28;20205;-46
2022/04/20 01:00:03;;;;;;;0.80;0.80;;;;;19.20;100480.00;;;;2070066;28;20226;-45
2022/04/20 01:01:03;;;;;;;1.00;0.80;;;;;19.20;100483.00;;;;2069917;28;20369;-47
2022/04/20 01:02:04;;;;;;;1.40;0.83;;;;;19.20;100483.00;;;;2077829;28;20240;-45
2022/04/20 01:03:05;;;;;;;1.00;0.90;;;;;19.20;100486.00;;;;2078766;28;20644;-44
2022/04/20 01:04:05;;;;;;;1.08;0.95;;;;;19.20;100481.00;;;;2078704;28;20396;-45
2022/04/20 01:05:06;;;;;;;1.07;0.90;;;;;19.20;100484.00;;;;2078652;28;20320;-45
2022/04/20 01:06:07;;;;;;;1.00;0.90;;;;;19.20;100485.00;;;;2077665;28;20267;-45
2022/04/20 01:07:14;;;;;;;1.13;0.98;;;;;19.20;100485.00;;;;2078677;28;20217;-46
2022/04/20 01:08:15;;;;;;;1.25;0.82;;;;;19.20;100489.00;;;;2075746;28;20213;-45
2022/04/20 01:09:15;;;;;;;0.95;0.82;;;;;19.20;100486.00;;;;2077943;28;20214;-46
2022/04/20 01:10:16;;;;;;;1.17;0.83;;;;;19.20;100486.00;;;;2078764;28;20564;-45
2022/04/20 01:11:16;;;;;;;2.00;1.00;;;;;19.20;100486.00;;;;2078623;28;20721;-45
2022/04/20 01:12:17;;;;;;;1.23;1.10;;;;;19.20;100497.00;;;;2077834;28;20781;-45
2022/04/20 01:13:18;;;;;;;0.90;0.80;;;;;19.20;100486.00;;;;2070081;28;20218;-46
2022/04/20 01:14:18;;;;;;;1.10;1.00;;;;;19.10;100489.00;;;;2069824;28;21024;-46
2022/04/20 01:15:18;;;;;;;1.00;0.90;;;;;19.20;100473.00;;;;2072870;28;20731;-46
2022/04/20 01:16:19;;;;;;;0.90;0.73;;;;;19.20;100486.00;;;;2069617;28;20277;-47
2022/04/20 01:17:19;;;;;;;1.37;0.80;;;;;19.20;100478.00;;;;2069885;28;20741;-44
2022/04/20 01:18:19;;;;;;;0.90;0.80;;;;;19.20;100483.00;;;;2070581;28;20718;-47
2022/04/20 01:19:20;;;;;;;1.03;0.80;;;;;19.10;100490.00;;;;2070657;28;20222;-46
2022/04/20 01:20:20;;;;;;;1.00;0.90;;;;;19.10;100472.00;;;;2070567;28;20221;-46
2022/04/20 01:21:22;;;;;;;1.00;0.90;;;;;19.10;100475.00;;;;2073599;28;20248;-45
2022/04/20 01:22:22;;;;;;;0.95;0.70;;;;;19.10;100478.00;;;;2078373;28;20221;-46
2022/04/20 01:23:22;;;;;;;1.33;0.87;;;;;19.10;100484.00;;;;2070712;28;20252;-46
2022/04/20 01:24:23;;;;;;;0.93;0.83;;;;;19.10;100482.00;;;;2070306;28;20214;-45
2022/04/20 01:25:23;;;;;;;0.90;0.80;;;;;19.10;100478.00;;;;2070118;28;20214;-46
2022/04/20 01:26:23;;;;;;;0.90;0.80;;;;;19.20;100479.00;;;;2070687;28;20255;-46
2022/04/20 01:27:24;;;;;;;1.03;0.90;;;;;19.10;100481.00;;;;2070134;28;20218;-45
2022/04/20 01:28:24;;;;;;;1.30;0.90;;;;;19.10;100485.00;;;;2075574;28;20210;-44
2022/04/20 01:29:28;;;;;;;1.10;1.00;;;;;19.10;100492.00;;;;2078446;28;20243;-47
2022/04/20 01:30:28;;;;;;;1.00;0.80;;;;;19.10;100484.00;;;;2078141;28;20218;-47
2022/04/20 01:31:29;;;;;;;1.20;0.93;;;;;19.10;100486.00;;;;2078921;28;20908;-46
2022/04/20 01:32:29;;;;;;;1.20;1.10;;;;;19.10;100483.00;;;;2078970;28;20236;-45
2022/04/20 01:33:30;;;;;;;0.90;0.70;;;;;19.10;100487.00;;;;2078426;28;20237;-45
2022/04/20 01:34:30;;;;;;;0.83;0.83;;;;;19.10;100482.00;;;;2078903;28;20217;-45
2022/04/20 01:35:30;;;;;;;1.00;0.90;;;;;19.20;100487.00;;;;2077975;28;20718;-45
2022/04/20 01:36:31;;;;;;;1.00;0.80;;;;;19.10;100486.00;;;;2078794;28;20213;-46
2022/04/20 01:37:31;;;;;;;1.00;0.80;;;;;19.10;100489.00;;;;2078716;28;20213;-46
2022/04/20 01:38:31;;;;;;;1.10;1.00;;;;;19.10;100490.00;;;;2075272;28;20206;-46
2022/04/20 01:39:32;;;;;;;1.10;0.97;;;;;19.10;100486.00;;;;2070885;28;20588;-45
2022/04/20 01:40:33;;;;;;;1.20;0.90;;;;;19.10;100486.00;;;;2075798;28;20634;-45
2022/04/20 01:41:33;;;;;;;1.00;0.90;;;;;19.10;100489.00;;;;2078847;28;20661;-46
2022/04/20 01:42:34;;;;;;;1.20;1.00;;;;;19.10;100476.00;;;;2078741;28;20452;-46
2022/04/20 01:43:34;;;;;;;1.35;1.25;;;;;18.90;100492.00;;;;2078529;28;20317;-45
2022/04/20 01:44:35;;;;;;;0.80;0.80;;;;;19.10;100490.00;;;;2078773;28;20209;-45
2022/04/20 01:45:35;;;;;;;1.10;1.00;;;;;19.10;100481.00;;;;2077978;28;20224;-46
2022/04/20 01:46:35;;;;;;;1.00;0.90;;;;;19.10;100483.00;;;;2078701;28;20326;-48
2022/04/20 01:47:37;;;;;;;1.00;0.80;;;;;19.10;100486.00;;;;2078680;28;20275;-47
2022/04/20 01:48:37;;;;;;;1.70;1.00;;;;;19.10;100476.00;;;;2078739;28;20484;-45
2022/04/20 01:49:37;;;;;;;1.30;0.80;;;;;19.10;100471.00;;;;2078718;28;20225;-47
2022/04/20 01:51:46;;;;;;;1.73;0.90;;;;;19.10;100479.00;;;;2078703;28;20210;-46
2022/04/20 01:51:58;;;;;;;1.25;0.88;;;;;19.10;100483.00;;;;2070277;28;20210;-46
2022/04/20 01:52:58;;;;;;;0.90;0.70;;;;;19.10;100476.00;;;;2070540;28;20710;-45
2022/04/20 01:53:59;;;;;;;1.20;0.90;;;;;19.10;100485.00;;;;2070056;28;20214;-45
2022/04/20 01:54:59;;;;;;;0.80;0.60;;;;;19.10;100479.00;;;;2075323;28;20284;-45
2022/04/20 01:56:00;;;;;;;1.03;0.90;;;;;19.10;100477.00;;;;2078220;28;20316;-46
2022/04/20 01:57:00;;;;;;;1.40;0.95;;;;;19.10;100472.00;;;;2078129;28;20213;-45
2022/04/20 01:58:01;;;;;;;1.00;0.80;;;;;19.10;100485.00;;;;2078733;28;20551;-46
2022/04/20 01:59:01;;;;;;;1.03;0.80;;;;;19.10;100487.00;;;;2078815;28;20833;-45
2022/04/20 02:00:01;;;;;;;1.00;0.87;;;;;19.10;100483.00;;;;2078624;28;20221;-45
2022/04/20 02:02:34;;;;;;;1.10;0.93;;;;;19.10;100494.00;;;;2078895;28;20209;-45
2022/04/20 02:02:34;;;;;;;1.15;0.90;;;;;19.10;100488.00;;;;2079992;28;20213;-47
2022/04/20 02:03:35;;;;;;;1.52;1.20;;;;;19.10;100479.00;;;;2080409;28;20233;-46
2022/04/20 02:04:35;;;;;;;0.77;0.73;;;;;19.10;100489.00;;;;2080355;28;20764;-48
2022/04/20 02:05:36;;;;;;;1.67;0.93;;;;;19.10;100488.00;;;;2079698;28;20231;-46
2022/04/20 02:06:36;;;;;;;1.30;0.83;;;;;19.10;100486.00;;;;2080499;28;20214;-45
2022/04/20 02:07:36;;;;;;;0.80;0.70;;;;;19.10;100488.00;;;;2078981;28;20308;-45
2022/04/20 02:08:37;;;;;;;1.00;0.70;;;;;19.10;100486.00;;;;2079499;28;20198;-45
2022/04/20 02:09:37;;;;;;;0.90;0.77;;;;;19.10;100493.00;;;;2075369;28;20213;-45
2022/04/20 02:10:37;;;;;;;1.10;1.00;;;;;19.10;100490.00;;;;2071284;28;20285;-45
2022/04/20 02:11:38;;;;;;;1.30;0.80;;;;;19.10;100490.00;;;;2071446;28;20206;-45
2022/04/20 02:12:39;;;;;;;1.05;0.90;;;;;19.10;100492.00;;;;2071994;28;20227;-48
2022/04/20 02:13:39;;;;;;;1.17;0.80;;;;;19.10;100490.00;;;;2071311;28;20306;-47
2022/04/20 02:14:40;;;;;;;1.27;0.93;;;;;19.10;100492.00;;;;2072262;28;20704;-45
2022/04/20 02:15:40;;;;;;;0.80;0.70;;;;;19.10;100489.00;;;;2079248;28;20228;-46
2022/04/20 02:16:41;;;;;;;1.13;0.90;;;;;19.10;100490.00;;;;2080039;28;20440;-46
2022/04/20 02:17:41;;;;;;;0.97;0.83;;;;;19.10;100493.00;;;;2080023;28;20245;-46
2022/04/20 02:18:41;;;;;;;2.30;1.17;;;;;19.10;100491.00;;;;2080087;28;20224;-45
2022/04/20 02:19:42;;;;;;;0.87;0.83;;;;;19.10;100495.00;;;;2079939;28;20209;-45
2022/04/20 02:20:42;;;;;;;1.27;0.87;;;;;19.10;100490.00;;;;2080135;28;20217;-45
2022/04/20 02:21:42;;;;;;;0.90;0.80;;;;;19.10;100487.00;;;;2078944;28;20210;-45
2022/04/20 02:22:43;;;;;;;1.13;1.03;;;;;19.10;100495.00;;;;2079493;28;20245;-45
2022/04/20 02:23:43;;;;;;;1.57;1.20;;;;;19.10;100486.00;;;;2079186;28;20213;-45
2022/04/20 02:24:43;;;;;;;1.00;0.90;;;;;19.10;100484.00;;;;2079969;28;20214;-47
2022/04/20 02:25:44;;;;;;;1.20;0.70;;;;;19.10;100480.00;;;;2076286;28;20237;-45
2022/04/20 02:26:44;;;;;;;1.10;1.00;;;;;19.10;100481.00;;;;2071803;28;20210;-45
2022/04/20 02:27:44;;;;;;;0.90;0.80;;;;;19.10;100481.00;;;;2071927;28;20288;-46
2022/04/20 02:28:45;;;;;;;1.17;0.90;;;;;19.10;100483.00;;;;2071841;28;20242;-45
2022/04/20 02:29:47;;;;;;;0.80;0.80;;;;;19.10;100485.00;;;;2071738;28;20261;-46
2022/04/20 02:30:47;;;;;;;0.93;0.80;;;;;19.10;100482.00;;;;2071867;28;20691;-45
2022/04/20 02:31:47;;;;;;;1.10;1.00;;;;;19.10;100480.00;;;;2071970;28;20209;-46
2022/04/20 02:32:48;;;;;;;0.90;0.90;;;;;19.10;100485.00;;;;2071707;28;20301;-47
2022/04/20 02:33:48;;;;;;;0.90;0.80;;;;;19.10;100486.00;;;;2071977;28;20262;-47
2022/04/20 02:34:48;;;;;;;1.30;1.00;;;;;19.10;100488.00;;;;2071992;28;20234;-45
2022/04/20 02:35:49;;;;;;;0.90;0.80;;;;;19.10;100492.00;;;;2071016;28;20230;-45
2022/04/20 02:36:49;;;;;;;2.10;0.80;;;;;19.10;100490.00;;;;2071922;28;20229;-45
2022/04/20 02:37:50;;;;;;;1.63;0.80;;;;;19.10;100490.00;;;;2071389;28;20316;-46
2022/04/20 02:38:50;;;;;;;0.83;0.70;;;;;19.10;100493.00;;;;2071230;28;20273;-46
2022/04/20 02:39:50;;;;;;;1.13;1.00;;;;;19.10;100491.00;;;;2071064;28;20293;-46
2022/04/20 02:40:51;;;;;;;1.20;1.00;;;;;19.10;100493.00;;;;2071756;28;20222;-45
2022/04/20 02:41:51;;;;;;;1.07;0.97;;;;;19.10;100495.00;;;;2071915;28;20210;-45
2022/04/20 02:42:51;;;;;;;1.20;1.00;;;;;19.10;100493.00;;;;2071587;28;20820;-45
2022/04/20 02:43:52;;;;;;;0.80;0.80;;;;;19.10;100490.00;;;;2071152;28;20222;-45
2022/04/20 02:44:52;;;;;;;0.90;0.90;;;;;19.10;100489.00;;;;2071867;28;20241;-45
2022/04/20 02:45:52;;;;;;;1.30;0.90;;;;;19.10;100493.00;;;;2077086;28;20240;-47
2022/04/20 02:46:53;;;;;;;1.23;1.00;;;;;19.10;100488.00;;;;2071030;28;20221;-47
2022/04/20 02:47:53;;;;;;;1.00;0.73;;;;;19.10;100496.00;;;;2071028;28;20332;-45
2022/04/20 02:48:54;;;;;;;1.10;0.90;;;;;19.10;100491.00;;;;2079476;28;20214;-45
2022/04/20 02:49:54;;;;;;;1.67;0.97;;;;;19.10;100493.00;;;;2079368;28;20213;-46
2022/04/20 02:50:54;;;;;;;1.20;1.00;;;;;19.10;100485.00;;;;2080035;28;20217;-44
2022/04/20 02:51:55;;;;;;;1.30;0.97;;;;;19.10;100498.00;;;;2080061;28;20701;-47
2022/04/20 02:52:55;;;;;;;1.50;1.00;;;;;19.10;100492.00;;;;2079862;28;20599;-45
2022/04/20 02:53:56;;;;;;;1.47;0.80;;;;;19.10;100494.00;;;;2078366;28;20209;-47
2022/04/20 02:54:56;;;;;;;1.03;0.90;;;;;19.10;100493.00;;;;2079897;28;20232;-48
2022/04/20 02:55:56;;;;;;;1.17;1.07;;;;;19.10;100493.00;;;;2078824;28;20214;-47
2022/04/20 02:56:57;;;;;;;1.10;0.97;;;;;19.10;100497.00;;;;2079481;28;20209;-48
2022/04/20 02:57:57;;;;;;;1.30;1.03;;;;;19.10;100497.00;;;;2079918;28;20287;-46
2022/04/20 02:58:57;;;;;;;1.17;1.07;;;;;19.10;100493.00;;;;2079861;28;20213;-47
2022/04/20 02:59:58;;;;;;;1.00;0.90;;;;;19.10;100488.00;;;;2079891;28;20217;-45
2022/04/20 03:00:58;;;;;;;1.30;1.20;;;;;19.10;100491.00;;;;2079990;28;20804;-45
2022/04/20 03:01:58;;;;;;;1.10;0.90;;;;;19.10;100500.00;;;;2080505;28;20217;-45
2022/04/20 03:02:59;;;;;;;1.00;0.80;;;;;19.10;100493.00;;;;2080558;28;20224;-47
2022/04/20 03:03:59;;;;;;;0.90;0.80;;;;;19.10;100482.00;;;;2080568;28;20232;-45
2022/04/20 03:04:59;;;;;;;0.80;0.67;;;;;19.00;100488.00;;;;2072901;28;20218;-46
2022/04/20 03:06:00;;;;;;;0.83;0.70;;;;;19.10;100492.00;;;;2071601;28;20210;-47
2022/04/20 03:07:00;;;;;;;0.83;0.80;;;;;19.10;100491.00;;;;2072048;28;20237;-45
2022/04/20 03:08:01;;;;;;;1.00;0.90;;;;;19.10;100495.00;;;;2072412;28;20214;-47
2022/04/20 03:09:02;;;;;;;1.23;1.00;;;;;19.10;100490.00;;;;2072295;28;20217;-46
2022/04/20 03:10:03;;;;;;;1.10;1.00;;;;;19.10;100492.00;;;;2076911;28;20209;-46
2022/04/20 03:11:04;;;;;;;0.97;0.90;;;;;19.10;100495.00;;;;2080304;28;20928;-45
2022/04/20 03:12:04;;;;;;;0.93;0.80;;;;;19.10;100496.00;;;;2080166;28;20907;-47
2022/04/20 03:13:05;;;;;;;0.80;0.70;;;;;19.00;100492.00;;;;2079287;28;20542;-45
2022/04/20 03:14:05;;;;;;;1.00;0.90;;;;;19.10;100495.00;;;;2072118;28;20225;-44
2022/04/20 03:15:06;;;;;;;1.13;1.00;;;;;19.10;100504.00;;;;2072150;28;20225;-45
2022/04/20 03:16:07;;;;;;;1.10;0.80;;;;;19.10;100499.00;;;;2071428;28;20240;-45
2022/04/20 03:17:07;;;;;;;1.07;0.97;;;;;19.10;100487.00;;;;2071674;28;20480;-46
2022/04/20 03:18:07;;;;;;;1.77;1.07;;;;;19.10;100495.00;;;;2079665;28;20276;-44
2022/04/20 03:19:08;;;;;;;1.10;1.00;;;;;19.00;100498.00;;;;2079463;28;20220;-45
2022/04/20 03:20:08;;;;;;;1.20;1.10;;;;;19.00;100487.00;;;;2077000;28;20210;-44
2022/04/20 03:21:09;;;;;;;1.30;1.13;;;;;19.10;100495.00;;;;2065733;28;20264;-45
2022/04/20 03:22:09;;;;;;;0.80;0.70;;;;;19.00;100495.00;;;;2061237;28;20306;-47
2022/04/20 03:23:10;;;;;;;1.00;0.87;;;;;19.10;100498.00;;;;2076499;28;20217;-45
2022/04/20 03:24:10;;;;;;;1.07;0.97;;;;;19.10;100491.00;;;;2079550;28;20220;-45
2022/04/20 03:25:11;;;;;;;1.13;0.87;;;;;19.00;100503.00;;;;2070984;28;20300;-46
2022/04/20 03:26:11;;;;;;;1.27;1.10;;;;;19.00;100492.00;;;;2071083;28;20737;-44
2022/04/20 03:27:12;;;;;;;0.90;0.83;;;;;19.10;100493.00;;;;2077703;28;21515;-44
2022/04/20 03:28:12;;;;;;;1.20;1.10;;;;;19.10;100499.00;;;;2070404;28;20226;-44
2022/04/20 03:29:12;;;;;;;1.50;1.40;;;;;19.00;100492.00;;;;2070651;28;20242;-48
2022/04/20 03:30:14;;;;;;;1.30;1.00;;;;;19.00;100495.00;;;;2071097;28;20233;-47
2022/04/20 03:31:14;;;;;;;1.08;0.98;;;;;19.00;100497.00;;;;2076101;28;20217;-44
2022/04/20 03:32:15;;;;;;;1.43;1.30;;;;;19.00;100494.00;;;;2077315;28;20213;-44
2022/04/20 03:33:15;;;;;;;1.40;1.00;;;;;19.00;100497.00;;;;2070436;28;20229;-46
2022/04/20 03:34:15;;;;;;;1.07;0.97;;;;;19.00;100499.00;;;;2068969;28;20691;-45
2022/04/20 03:35:16;;;;;;;1.20;1.10;;;;;19.00;100503.00;;;;2065230;28;20221;-46
2022/04/20 03:36:17;;;;;;;1.17;1.07;;;;;19.00;100496.00;;;;2070426;28;20210;-44
2022/04/20 03:37:17;;;;;;;1.23;1.00;;;;;19.00;100499.00;;;;2077278;28;20214;-45
2022/04/20 03:38:17;;;;;;;1.63;1.30;;;;;19.00;100499.00;;;;2079415;28;20311;-47
2022/04/20 03:39:18;;;;;;;1.10;1.00;;;;;19.00;100495.00;;;;2078472;28;20213;-44
2022/04/20 03:40:18;;;;;;;1.20;1.10;;;;;19.00;100496.00;;;;2070323;28;20210;-48
2022/04/20 03:41:18;;;;;;;1.20;1.10;;;;;19.00;100496.00;;;;2074106;28;20321;-46
2022/04/20 03:42:19;;;;;;;1.40;0.90;;;;;19.00;100505.00;;;;2073788;28;20308;-47
2022/04/20 03:43:19;;;;;;;1.17;1.07;;;;;19.00;100502.00;;;;2074131;28;20222;-45
2022/04/20 03:44:20;;;;;;;1.10;0.93;;;;;19.00;100503.00;;;;2071241;28;20237;-45
2022/04/20 03:45:20;;;;;;;1.10;0.90;;;;;19.00;100506.00;;;;2073063;28;20611;-45
2022/04/20 03:46:22;;;;;;;1.20;1.00;;;;;19.00;100507.00;;;;2075466;28;20267;-44
2022/04/20 03:47:22;;;;;;;1.55;1.13;;;;;19.00;100505.00;;;;2071113;28;20210;-44
2022/04/20 03:48:23;;;;;;;1.10;1.00;;;;;19.00;100508.00;;;;2076013;28;20241;-45
2022/04/20 03:49:23;;;;;;;1.10;1.00;;;;;19.00;100501.00;;;;2078468;28;21367;-45
2022/04/20 03:50:24;;;;;;;0.90;0.77;;;;;19.00;100507.00;;;;2075063;28;20365;-47
2022/04/20 03:51:24;;;;;;;1.17;1.07;;;;;19.00;100514.00;;;;2078127;28;20218;-46
2022/04/20 03:52:24;;;;;;;1.73;1.33;;;;;19.00;100505.00;;;;2078825;28;20620;-44
2022/04/20 03:53:25;;;;;;;1.17;1.00;;;;;19.00;100509.00;;;;2078668;28;20213;-44
2022/04/20 03:54:26;;;;;;;1.30;0.90;;;;;19.00;100500.00;;;;2078657;28;20237;-44
2022/04/20 03:55:26;;;;;;;1.40;1.20;;;;;19.00;100500.00;;;;2073689;28;20225;-46
2022/04/20 03:57:03;;;;;;;1.17;1.07;;;;;19.00;100503.00;;;;2075178;28;20220;-46
2022/04/20 03:57:46;;;;;;;1.20;1.02;;;;;19.00;100501.00;;;;2078915;28;20335;-45
2022/04/20 03:58:47;;;;;;;1.43;1.10;;;;;19.00;100502.00;;;;2076732;28;20328;-44
2022/04/20 03:59:47;;;;;;;1.13;0.90;;;;;19.00;100514.00;;;;2070161;28;20226;-45
2022/04/20 04:00:48;;;;;;;1.00;0.90;;;;;19.00;100511.00;;;;2066902;28;20218;-46
2022/04/20 04:01:49;;;;;;;1.17;1.07;;;;;19.00;100506.00;;;;2074114;28;20217;-46
2022/04/20 04:02:49;;;;;;;1.10;1.00;;;;;19.00;100507.00;;;;2072428;28;20454;-45
2022/04/20 04:03:49;;;;;;;2.10;1.40;;;;;19.00;100506.00;;;;2078552;28;20214;-45
2022/04/20 04:04:50;;;;;;;0.90;0.80;;;;;19.00;100511.00;;;;2078665;28;20209;-45
2022/04/20 04:05:51;;;;;;;1.00;0.90;;;;;19.00;100508.00;;;;2077914;28;20633;-45
2022/04/20 04:06:51;;;;;;;1.30;1.00;;;;;19.00;100504.00;;;;2078480;28;20209;-45
2022/04/20 04:07:51;;;;;;;1.13;0.97;;;;;19.00;100508.00;;;;2072089;28;20220;-44
2022/04/20 04:08:52;;;;;;;1.40;0.90;;;;;19.00;100507.00;;;;2070563;28;20214;-44
2022/04/20 04:09:52;;;;;;;1.00;0.90;;;;;18.70;100525.00;;;;2078069;28;20694;-44
2022/04/20 04:10:52;;;;;;;1.10;1.00;;;;;19.00;100514.00;;;;2078029;28;20708;-47
2022/04/20 04:11:53;;;;;;;1.27;1.10;;;;;19.00;100519.00;;;;2078650;28;20573;-47
2022/04/20 04:12:56;;;;;;;1.30;1.00;;;;;19.00;100517.00;;;;2078368;28;20698;-46
2022/04/20 04:13:57;;;;;;;1.13;0.90;;;;;19.00;100528.00;;;;2077143;28;20212;-46
2022/04/20 04:14:57;;;;;;;1.40;1.10;;;;;19.00;100521.00;;;;2078823;28;22224;-47
2022/04/20 04:15:57;;;;;;;1.00;0.90;;;;;19.00;100521.00;;;;2077965;28;20240;-46
2022/04/20 04:16:58;;;;;;;1.10;0.90;;;;;19.00;100525.00;;;;2078235;28;20228;-46
2022/04/20 04:17:59;;;;;;;1.40;1.30;;;;;19.00;100523.00;;;;2078347;28;20226;-45
2022/04/20 04:18:59;;;;;;;1.02;0.93;;;;;19.00;100526.00;;;;2070593;28;20272;-45
2022/04/20 04:19:59;;;;;;;1.50;1.20;;;;;19.00;100529.00;;;;2070040;28;20260;-46
2022/04/20 04:21:00;;;;;;;1.07;0.97;;;;;19.00;100525.00;;;;2070106;28;20221;-46
2022/04/20 04:22:04;;;;;;;1.10;1.00;;;;;19.00;100533.00;;;;2070629;28;20666;-46
2022/04/20 04:23:06;;;;;;;1.23;1.13;;;;;19.00;100528.00;;;;2070880;28;20222;-46
2022/04/20 04:24:07;;;;;;;1.10;1.00;;;;;19.00;100526.00;;;;2070635;28;20214;-50
2022/04/20 04:25:10;;;;;;;1.15;1.05;;;;;19.00;100529.00;;;;2070359;28;20218;-46
2022/04/20 04:26:10;;;;;;;1.50;0.95;;;;;19.00;100535.00;;;;2069208;28;20216;-46
2022/04/20 04:27:10;;;;;;;1.57;1.10;;;;;19.00;100526.00;;;;2069566;28;20210;-48
2022/04/20 04:28:11;;;;;;;1.40;1.30;;;;;19.00;100534.00;;;;2070554;28;20214;-47
2022/04/20 04:29:11;;;;;;;1.67;1.20;;;;;19.00;100527.00;;;;2070251;28;20222;-48
2022/04/20 04:30:12;;;;;;;1.23;1.13;;;;;19.00;100534.00;;;;2069991;28;20234;-49
2022/04/20 04:31:12;;;;;;;1.30;1.00;;;;;19.00;100529.00;;;;2069890;28;20238;-46
2022/04/20 04:32:13;;;;;;;1.47;1.10;;;;;19.00;100539.00;;;;2070624;28;20229;-45
2022/04/20 04:33:13;;;;;;;1.07;0.90;;;;;19.00;100530.00;;;;2070591;28;20259;-46
2022/04/20 04:34:13;;;;;;;1.40;1.10;;;;;19.00;100539.00;;;;2069563;28;20848;-47
2022/04/20 04:35:14;;;;;;;1.40;1.10;;;;;19.00;100533.00;;;;2073400;28;20370;-47
2022/04/20 04:36:14;;;;;;;1.50;0.90;;;;;19.00;100539.00;;;;2069891;28;20245;-47
2022/04/20 04:37:14;;;;;;;1.53;1.43;;;;;19.00;100530.00;;;;2070579;28;20218;-46
2022/04/20 04:38:15;;;;;;;1.20;1.10;;;;;19.00;100533.00;;;;2074924;28;20220;-46
2022/04/20 04:39:17;;;;;;;1.43;1.20;;;;;19.00;100536.00;;;;2077632;28;20709;-47
2022/04/20 04:40:18;;;;;;;1.20;1.10;;;;;19.00;100536.00;;;;2077906;28;20584;-46
2022/04/20 04:41:19;;;;;;;1.27;1.00;;;;;19.00;100536.00;;;;2077896;28;20226;-46
2022/04/20 04:42:19;;;;;;;1.90;1.27;;;;;19.00;100540.00;;;;2079086;28;20217;-46
2022/04/20 04:43:19;;;;;;;1.40;1.20;;;;;19.00;100535.00;;;;2078895;28;20659;-46
2022/04/20 04:44:20;;;;;;;1.10;1.00;;;;;19.00;100538.00;;;;2079285;28;20209;-47
2022/04/20 04:49:17;;;;;;;1.38;1.13;;;;;19.00;100544.00;;;;2077725;28;20213;-47
2022/04/20 04:50:17;;;;;;;1.13;0.90;;;;;19.00;100539.00;;;;2070108;28;20690;-45
2022/04/20 04:51:18;;;;;;;1.40;1.10;;;;;19.00;100544.00;;;;2070166;28;20218;-47
2022/04/20 04:52:18;;;;;;;1.73;1.13;;;;;19.00;100542.00;;;;2071003;28;20299;-47
2022/04/20 04:53:18;;;;;;;1.03;0.93;;;;;19.00;100538.00;;;;2070997;28;20226;-46
2022/04/20 04:54:19;;;;;;;1.40;1.30;;;;;19.00;100549.00;;;;2070579;28;20237;-47
2022/04/20 04:55:19;;;;;;;1.23;1.13;;;;;19.00;100535.00;;;;2074476;28;20245;-47
2022/04/20 04:56:19;;;;;;;1.03;0.93;;;;;19.00;100546.00;;;;2078794;28;20214;-45
2022/04/20 04:57:20;;;;;;;1.30;1.20;;;;;19.00;100549.00;;;;2079030;28;20223;-46
2022/04/20 04:58:20;;;;;;;1.30;1.00;;;;;19.00;100551.00;;;;2072648;28;20214;-47
2022/04/20 04:59:20;;;;;;;1.07;0.80;;;;;19.00;100553.00;;;;2069327;28;20222;-47
2022/04/20 05:00:23;;;;;;;1.53;1.20;;;;;19.00;100556.00;;;;2070999;28;20256;-47
2022/04/20 05:01:23;;;;;;;1.30;1.20;;;;;19.00;100549.00;;;;2071104;28;20819;-46
2022/04/20 05:02:24;;;;;;;1.07;0.97;;;;;19.00;100554.00;;;;2070696;28;20245;-46
2022/04/20 05:03:24;;;;;;;1.47;1.20;;;;;19.00;100551.00;;;;2070810;28;20288;-46
2022/04/20 05:04:25;;;;;;;1.30;1.00;;;;;19.00;100547.00;;;;2070969;28;20214;-47